All
Mangaia Airport (Mangaia (Auau Enua)) MGS Weather
|
Mangaia (Auau Enua) (MGS / NCMG)
Clear skies
Light winds |
|
75 °F |
There is no TAF data available at MGS or any nearby airports.
Recent MGS METAR history
| Date | Time (-10) | Flight Rules | Wind Dir. | Speed | Type | Height AGL (ft) | Visibility | Temp (°C) | Temp (°F) | Dew Point (°C) | Dew Point (°F) | Rel. Humid. | Pressure | Density Altitude | Remarks |
|---|---|---|---|---|---|---|---|---|---|---|---|---|---|---|---|
| gap in available data | |||||||||||||||
| 04-May | 04:00AM | n/a | 130° | 6 kt | Missing | 24° | 75° | 21° | 69° | 83% | 1012 mb | 1,127 ft | |||
| 04-May | 03:00AM | n/a | 140° | 7 kt | Missing | 24° | 75° | 21° | 69° | 83% | 1012 mb | 1,127 ft | |||
| 04-May | 02:00AM | n/a | 140° | 5 kt | Missing | 24° | 75° | 21° | 69° | 83% | 1012 mb | 1,127 ft | |||
| 04-May | 01:00AM | n/a | 150° | 5 kt | Missing | 24° | 75° | 21° | 69° | 83% | 1013 mb | 1,097 ft | |||
| 04-May | 12:00AM | n/a | 150° | 5 kt | Missing | 24° | 75° | 21° | 69° | 83% | 1013 mb | 1,097 ft | |||
| 03-May | 11:00PM | n/a | 140° | 4 kt | Missing | 23° | 73° | 21° | 69° | 89% | 1013 mb | 977 ft | |||
| 03-May | 10:00PM | n/a | 140° | 4 kt | Missing | 22° | 71° | 21° | 69° | 94% | 1013 mb | 857 ft | |||
| 03-May | 09:00PM | n/a | 100° | 3 kt | Missing | 22° | 71° | 21° | 69° | 94% | 1012 mb | 887 ft | |||
| 03-May | 08:00PM | n/a | 130° | 3 kt | Missing | 22° | 71° | 22° | 71° | 100% | 1011 mb | 916 ft | |||
| 03-May | 07:00PM | n/a | 120° | 3 kt | Missing | 23° | 73° | 22° | 71° | 94% | 1011 mb | 1,036 ft | |||
| 03-May | 06:00PM | n/a | 130° | 4 kt | Missing | 24° | 75° | 22° | 71° | 89% | 1010 mb | 1,186 ft | |||
| 03-May | 05:00PM | n/a | 140° | 5 kt | Missing | 24° | 75° | 22° | 71° | 89% | 1010 mb | 1,186 ft | |||
| 03-May | 04:00PM | n/a | 140° | 6 kt | Missing | 25° | 77° | 22° | 71° | 83% | 1010 mb | 1,306 ft | |||
| 03-May | 03:00PM | n/a | 140° | 8 kt | Missing | 25° | 77° | 22° | 71° | 83% | 1009 mb | 1,335 ft | |||
| 03-May | 02:00PM | n/a | 160° | 6 kt | Missing | 24° | 75° | 23° | 73° | 94% | 1010 mb | 1,186 ft | |||
| 03-May | 01:00PM | n/a | 220° | 6 kt | Missing | 24° | 75° | 23° | 73° | 94% | 1011 mb | 1,156 ft | |||
| 03-May | 12:00PM | n/a | 220° | 6 kt | Missing | 24° | 75° | 23° | 73° | 94% | 1011 mb | 1,156 ft | |||
| 03-May | 11:00AM | n/a | 160° | 4 kt | Missing | 25° | 77° | 23° | 73° | 89% | 1011 mb | 1,276 ft | |||
| 03-May | 10:00AM | n/a | 200° | 3 kt | Missing | 27° | 80° | 23° | 73° | 79% | 1011 mb | 1,516 ft | |||
| 03-May | 09:00AM | n/a | 240° | 2 kt | Missing | 26° | 78° | 24° | 75° | 89% | 1011 mb | 1,396 ft | |||
| 03-May | 08:00AM | n/a | 190° | 2 kt | Missing | 24° | 75° | 23° | 73° | 94% | 1010 mb | 1,186 ft | |||
| 03-May | 07:00AM | n/a | 140° | 2 kt | Missing | 23° | 73° | 23° | 73° | 100% | 1010 mb | 1,066 ft | |||
| 03-May | 06:00AM | n/a | 150° | 2 kt | Missing | 24° | 75° | 23° | 73° | 94% | 1009 mb | 1,215 ft | |||
| 03-May | 05:00AM | n/a | 220° | 3 kt | Missing | 25° | 77° | 23° | 73° | 89% | 1009 mb | 1,335 ft | |||
Login
| Your browser is unsupported. upgrade your browser |
